sensor_id;sensor_type;location;lat;lon;timestamp;temperature;humidity
63013;DHT22;62113;45.624;11.700;2023-10-09T00:00:31;22.30;62.40
63013;DHT22;62113;45.624;11.700;2023-10-09T00:03:06;22.30;62.10
63013;DHT22;62113;45.624;11.700;2023-10-09T00:05:31;22.30;62.70
63013;DHT22;62113;45.624;11.700;2023-10-09T00:08:17;22.20;62.50
63013;DHT22;62113;45.624;11.700;2023-10-09T00:11:00;22.20;62.40
63013;DHT22;62113;45.624;11.700;2023-10-09T00:13:47;22.20;62.20
63013;DHT22;62113;45.624;11.700;2023-10-09T00:16:23;22.20;62.30
63013;DHT22;62113;45.624;11.700;2023-10-09T00:19:01;22.10;62.30
63013;DHT22;62113;45.624;11.700;2023-10-09T00:21:47;22.10;62.20
63013;DHT22;62113;45.624;11.700;2023-10-09T00:24:13;22.10;62.20
63013;DHT22;62113;45.624;11.700;2023-10-09T00:26:48;22.10;62.30
63013;DHT22;62113;45.624;11.700;2023-10-09T00:29:14;22.10;62.30
63013;DHT22;62113;45.624;11.700;2023-10-09T00:31:52;22.10;62.40
63013;DHT22;62113;45.624;11.700;2023-10-09T00:34:40;22.00;62.40
63013;DHT22;62113;45.624;11.700;2023-10-09T00:37:08;22.00;62.30
63013;DHT22;62113;45.624;11.700;2023-10-09T00:39:45;21.90;62.40
63013;DHT22;62113;45.624;11.700;2023-10-09T00:42:13;21.90;62.80
63013;DHT22;62113;45.624;11.700;2023-10-09T00:44:40;21.90;62.70
63013;DHT22;62113;45.624;11.700;2023-10-09T00:47:08;21.80;63.00
63013;DHT22;62113;45.624;11.700;2023-10-09T00:49:49;21.80;62.70
63013;DHT22;62113;45.624;11.700;2023-10-09T00:52:15;21.80;62.50
63013;DHT22;62113;45.624;11.700;2023-10-09T00:54:47;21.80;62.40
63013;DHT22;62113;45.624;11.700;2023-10-09T00:57:17;21.80;62.50
63013;DHT22;62113;45.624;11.700;2023-10-09T00:59:43;21.70;62.40
63013;DHT22;62113;45.624;11.700;2023-10-09T01:02:11;21.70;62.40
63013;DHT22;62113;45.624;11.700;2023-10-09T01:04:37;21.70;62.30
63013;DHT22;62113;45.624;11.700;2023-10-09T01:07:06;21.70;62.60
63013;DHT22;62113;45.624;11.700;2023-10-09T01:09:40;21.70;63.00
63013;DHT22;62113;45.624;11.700;2023-10-09T01:12:09;21.70;62.50
63013;DHT22;62113;45.624;11.700;2023-10-09T01:14:45;21.70;63.00
63013;DHT22;62113;45.624;11.700;2023-10-09T01:17:11;21.70;63.00
63013;DHT22;62113;45.624;11.700;2023-10-09T01:19:37;21.60;63.00
63013;DHT22;62113;45.624;11.700;2023-10-09T01:22:02;21.50;63.00
63013;DHT22;62113;45.624;11.700;2023-10-09T01:24:41;21.50;62.60
63013;DHT22;62113;45.624;11.700;2023-10-09T01:27:08;21.50;62.80
63013;DHT22;62113;45.624;11.700;2023-10-09T01:29:40;21.40;63.00
63013;DHT22;62113;45.624;11.700;2023-10-09T01:32:07;21.40;62.60
63013;DHT22;62113;45.624;11.700;2023-10-09T01:34:34;21.50;62.50
63013;DHT22;62113;45.624;11.700;2023-10-09T01:37:10;21.40;62.60
63013;DHT22;62113;45.624;11.700;2023-10-09T01:39:53;21.40;62.80
63013;DHT22;62113;45.624;11.700;2023-10-09T01:42:23;21.40;62.90
63013;DHT22;62113;45.624;11.700;2023-10-09T01:45:09;21.40;62.60
63013;DHT22;62113;45.624;11.700;2023-10-09T01:47:52;21.30;62.50
63013;DHT22;62113;45.624;11.700;2023-10-09T01:50:19;21.30;62.90
63013;DHT22;62113;45.624;11.700;2023-10-09T01:52:47;21.30;62.80
63013;DHT22;62113;45.624;11.700;2023-10-09T01:55:13;21.30;62.60
63013;DHT22;62113;45.624;11.700;2023-10-09T01:57:57;21.30;62.60
63013;DHT22;62113;45.624;11.700;2023-10-09T02:00:23;21.30;63.00
63013;DHT22;62113;45.624;11.700;2023-10-09T02:02:53;21.30;63.10
63013;DHT22;62113;45.624;11.700;2023-10-09T02:05:19;21.20;62.80
63013;DHT22;62113;45.624;11.700;2023-10-09T02:07:44;21.30;62.60
63013;DHT22;62113;45.624;11.700;2023-10-09T02:10:11;21.20;62.60
63013;DHT22;62113;45.624;11.700;2023-10-09T02:12:56;21.20;62.80
63013;DHT22;62113;45.624;11.700;2023-10-09T02:15:30;21.20;62.50
63013;DHT22;62113;45.624;11.700;2023-10-09T02:18:20;21.20;62.80
63013;DHT22;62113;45.624;11.700;2023-10-09T02:20:50;21.20;62.80
63013;DHT22;62113;45.624;11.700;2023-10-09T02:23:37;21.20;62.70
63013;DHT22;62113;45.624;11.700;2023-10-09T02:26:06;21.20;63.00
63013;DHT22;62113;45.624;11.700;2023-10-09T02:28:33;21.10;62.90
63013;DHT22;62113;45.624;11.700;2023-10-09T02:30:59;21.10;63.20
63013;DHT22;62113;45.624;11.700;2023-10-09T02:33:35;21.10;62.80
63013;DHT22;62113;45.624;11.700;2023-10-09T02:36:10;21.00;62.80
63013;DHT22;62113;45.624;11.700;2023-10-09T02:38:38;21.10;62.60
63013;DHT22;62113;45.624;11.700;2023-10-09T02:41:07;21.00;62.60
63013;DHT22;62113;45.624;11.700;2023-10-09T02:43:54;21.00;62.60
63013;DHT22;62113;45.624;11.700;2023-10-09T02:46:21;21.00;62.60
63013;DHT22;62113;45.624;11.700;2023-10-09T02:48:54;21.00;62.50
63013;DHT22;62113;45.624;11.700;2023-10-09T02:51:23;21.00;62.50
63013;DHT22;62113;45.624;11.700;2023-10-09T02:54:09;21.00;63.10
63013;DHT22;62113;45.624;11.700;2023-10-09T02:56:46;20.90;62.70
63013;DHT22;62113;45.624;11.700;2023-10-09T02:59:32;20.90;62.90
63013;DHT22;62113;45.624;11.700;2023-10-09T03:01:58;20.80;62.70
63013;DHT22;62113;45.624;11.700;2023-10-09T03:04:25;20.80;62.70
63013;DHT22;62113;45.624;11.700;2023-10-09T03:07:02;20.80;62.60
63013;DHT22;62113;45.624;11.700;2023-10-09T03:09:29;20.80;62.70
63013;DHT22;62113;45.624;11.700;2023-10-09T03:11:58;20.80;62.70
63013;DHT22;62113;45.624;11.700;2023-10-09T03:14:31;20.80;63.20
63013;DHT22;62113;45.624;11.700;2023-10-09T03:17:00;20.70;62.90
63013;DHT22;62113;45.624;11.700;2023-10-09T03:19:27;20.70;63.00
63013;DHT22;62113;45.624;11.700;2023-10-09T03:21:53;20.70;63.10
63013;DHT22;62113;45.624;11.700;2023-10-09T03:24:19;20.70;63.10
63013;DHT22;62113;45.624;11.700;2023-10-09T03:26:48;20.70;62.60
63013;DHT22;62113;45.624;11.700;2023-10-09T03:29:15;20.60;62.50
63013;DHT22;62113;45.624;11.700;2023-10-09T03:31:40;20.50;62.80
63013;DHT22;62113;45.624;11.700;2023-10-09T03:34:08;20.50;62.70
63013;DHT22;62113;45.624;11.700;2023-10-09T03:36:36;20.40;63.00
63013;DHT22;62113;45.624;11.700;2023-10-09T03:39:03;20.40;62.90
63013;DHT22;62113;45.624;11.700;2023-10-09T03:41:43;20.40;63.10
63013;DHT22;62113;45.624;11.700;2023-10-09T03:44:13;20.40;63.00
63013;DHT22;62113;45.624;11.700;2023-10-09T03:46:39;20.40;62.70
63013;DHT22;62113;45.624;11.700;2023-10-09T03:49:04;20.40;62.60
63013;DHT22;62113;45.624;11.700;2023-10-09T03:51:36;20.40;62.70
63013;DHT22;62113;45.624;11.700;2023-10-09T03:54:02;20.40;62.50
63013;DHT22;62113;45.624;11.700;2023-10-09T03:56:32;20.40;62.60
63013;DHT22;62113;45.624;11.700;2023-10-09T03:58:58;20.40;62.50
63013;DHT22;62113;45.624;11.700;2023-10-09T04:01:23;20.40;62.70
63013;DHT22;62113;45.624;11.700;2023-10-09T04:04:05;20.40;62.40
63013;DHT22;62113;45.624;11.700;2023-10-09T04:06:32;20.30;62.40
63013;DHT22;62113;45.624;11.700;2023-10-09T04:09:02;20.40;62.70
63013;DHT22;62113;45.624;11.700;2023-10-09T04:11:40;20.30;62.70
63013;DHT22;62113;45.624;11.700;2023-10-09T04:14:14;20.40;62.50
63013;DHT22;62113;45.624;11.700;2023-10-09T04:16:58;20.30;62.50
63013;DHT22;62113;45.624;11.700;2023-10-09T04:19:43;20.30;62.70
63013;DHT22;62113;45.624;11.700;2023-10-09T04:22:37;20.20;62.60
63013;DHT22;62113;45.624;11.700;2023-10-09T04:25:25;20.20;62.70
63013;DHT22;62113;45.624;11.700;2023-10-09T04:27:57;20.20;62.60
63013;DHT22;62113;45.624;11.700;2023-10-09T04:30:37;20.10;62.90
63013;DHT22;62113;45.624;11.700;2023-10-09T04:33:06;20.10;62.80
63013;DHT22;62113;45.624;11.700;2023-10-09T04:35:36;20.00;62.90
63013;DHT22;62113;45.624;11.700;2023-10-09T04:38:04;20.00;63.10
63013;DHT22;62113;45.624;11.700;2023-10-09T04:40:31;20.00;62.90
63013;DHT22;62113;45.624;11.700;2023-10-09T04:43:11;19.90;63.00
63013;DHT22;62113;45.624;11.700;2023-10-09T04:45:48;19.90;62.80
63013;DHT22;62113;45.624;11.700;2023-10-09T04:48:34;19.90;62.70
63013;DHT22;62113;45.624;11.700;2023-10-09T04:51:10;19.80;62.90
63013;DHT22;62113;45.624;11.700;2023-10-09T04:53:56;19.80;62.90
63013;DHT22;62113;45.624;11.700;2023-10-09T04:56:40;19.80;62.80
63013;DHT22;62113;45.624;11.700;2023-10-09T04:59:20;19.80;63.60
63013;DHT22;62113;45.624;11.700;2023-10-09T05:01:53;19.70;63.00
63013;DHT22;62113;45.624;11.700;2023-10-09T05:04:25;19.70;63.90
63013;DHT22;62113;45.624;11.700;2023-10-09T05:07:12;19.70;63.50
63013;DHT22;62113;45.624;11.700;2023-10-09T05:09:56;19.70;64.20
63013;DHT22;62113;45.624;11.700;2023-10-09T05:12:33;19.70;64.20
63013;DHT22;62113;45.624;11.700;2023-10-09T05:14:59;19.70;64.30
63013;DHT22;62113;45.624;11.700;2023-10-09T05:17:36;19.80;63.60
63013;DHT22;62113;45.624;11.700;2023-10-09T05:20:04;19.70;63.60
63013;DHT22;62113;45.624;11.700;2023-10-09T05:23:04;19.80;64.30
63013;DHT22;62113;45.624;11.700;2023-10-09T05:25:48;19.80;64.00
63013;DHT22;62113;45.624;11.700;2023-10-09T05:28:33;19.80;64.70
63013;DHT22;62113;45.624;11.700;2023-10-09T05:31:14;19.80;64.20
63013;DHT22;62113;45.624;11.700;2023-10-09T05:34:00;19.80;64.80
63013;DHT22;62113;45.624;11.700;2023-10-09T05:36:26;19.90;64.70
63013;DHT22;62113;45.624;11.700;2023-10-09T05:38:52;19.90;65.10
63013;DHT22;62113;45.624;11.700;2023-10-09T05:41:27;20.00;64.50
63013;DHT22;62113;45.624;11.700;2023-10-09T05:44:11;20.00;64.90
63013;DHT22;62113;45.624;11.700;2023-10-09T05:46:55;20.10;64.40
63013;DHT22;62113;45.624;11.700;2023-10-09T05:49:39;20.10;64.30
63013;DHT22;62113;45.624;11.700;2023-10-09T05:52:14;20.20;65.10
63013;DHT22;62113;45.624;11.700;2023-10-09T05:55:20;20.20;65.10
63013;DHT22;62113;45.624;11.700;2023-10-09T05:58:04;20.40;64.10
63013;DHT22;62113;45.624;11.700;2023-10-09T06:00:55;20.60;64.20
63013;DHT22;62113;45.624;11.700;2023-10-09T06:03:38;20.90;63.60
63013;DHT22;62113;45.624;11.700;2023-10-09T06:06:13;21.20;63.60
63013;DHT22;62113;45.624;11.700;2023-10-09T06:08:57;21.40;63.10
63013;DHT22;62113;45.624;11.700;2023-10-09T06:11:41;21.70;62.70
63013;DHT22;62113;45.624;11.700;2023-10-09T06:14:15;22.10;61.90
63013;DHT22;62113;45.624;11.700;2023-10-09T06:16:51;22.40;61.00
63013;DHT22;62113;45.624;11.700;2023-10-09T06:19:23;22.80;60.60
63013;DHT22;62113;45.624;11.700;2023-10-09T06:21:48;23.20;59.80
63013;DHT22;62113;45.624;11.700;2023-10-09T06:24:17;23.60;59.40
63013;DHT22;62113;45.624;11.700;2023-10-09T06:26:44;24.00;58.10
63013;DHT22;62113;45.624;11.700;2023-10-09T06:29:36;24.20;57.30
63013;DHT22;62113;45.624;11.700;2023-10-09T06:32:02;24.70;56.60
63013;DHT22;62113;45.624;11.700;2023-10-09T06:34:53;24.90;56.30
63013;DHT22;62113;45.624;11.700;2023-10-09T06:37:22;25.20;55.90
63013;DHT22;62113;45.624;11.700;2023-10-09T06:39:48;25.20;55.70
63013;DHT22;62113;45.624;11.700;2023-10-09T06:42:23;25.20;55.50
63013;DHT22;62113;45.624;11.700;2023-10-09T06:47:51;25.10;57.00
63013;DHT22;62113;45.624;11.700;2023-10-09T06:50:21;25.00;56.60
63013;DHT22;62113;45.624;11.700;2023-10-09T06:52:50;25.10;57.60
63013;DHT22;62113;45.624;11.700;2023-10-09T06:55:44;25.10;56.50
63013;DHT22;62113;45.624;11.700;2023-10-09T06:58:21;25.20;57.10
63013;DHT22;62113;45.624;11.700;2023-10-09T07:01:07;25.20;56.90
63013;DHT22;62113;45.624;11.700;2023-10-09T07:03:51;25.30;57.90
63013;DHT22;62113;45.624;11.700;2023-10-09T07:06:25;25.40;57.40
63013;DHT22;62113;45.624;11.700;2023-10-09T07:09:11;25.60;57.60
63013;DHT22;62113;45.624;11.700;2023-10-09T07:11:40;25.70;55.30
63013;DHT22;62113;45.624;11.700;2023-10-09T07:19:25;25.90;55.50
63013;DHT22;62113;45.624;11.700;2023-10-09T07:22:06;25.90;55.50
63013;DHT22;62113;45.624;11.700;2023-10-09T07:24:42;26.10;55.10
63013;DHT22;62113;45.624;11.700;2023-10-09T07:27:20;26.30;54.80
63013;DHT22;62113;45.624;11.700;2023-10-09T07:30:06;26.40;53.40
63013;DHT22;62113;45.624;11.700;2023-10-09T07:35:21;26.90;55.30
63013;DHT22;62113;45.624;11.700;2023-10-09T07:38:05;27.20;52.10
63013;DHT22;62113;45.624;11.700;2023-10-09T07:40:37;27.50;51.90
63013;DHT22;62113;45.624;11.700;2023-10-09T07:43:24;27.70;51.60
63013;DHT22;62113;45.624;11.700;2023-10-09T07:46:17;28.00;51.00
63013;DHT22;62113;45.624;11.700;2023-10-09T07:48:58;28.20;50.70
63013;DHT22;62113;45.624;11.700;2023-10-09T07:51:26;28.50;48.60
63013;DHT22;62113;45.624;11.700;2023-10-09T07:54:00;29.10;51.20
63013;DHT22;62113;45.624;11.700;2023-10-09T07:56:40;29.70;45.70
63013;DHT22;62113;45.624;11.700;2023-10-09T07:59:12;30.50;43.90
63013;DHT22;62113;45.624;11.700;2023-10-09T08:01:39;31.10;43.40
63013;DHT22;62113;45.624;11.700;2023-10-09T08:07:04;31.20;42.90
63013;DHT22;62113;45.624;11.700;2023-10-09T08:09:34;31.30;43.10
63013;DHT22;62113;45.624;11.700;2023-10-09T08:12:12;31.20;43.30
63013;DHT22;62113;45.624;11.700;2023-10-09T08:15:04;31.10;44.60
63013;DHT22;62113;45.624;11.700;2023-10-09T08:17:45;30.90;43.70
63013;DHT22;62113;45.624;11.700;2023-10-09T08:20:22;30.80;45.20
63013;DHT22;62113;45.624;11.700;2023-10-09T08:22:51;30.90;43.20
63013;DHT22;62113;45.624;11.700;2023-10-09T08:25:18;31.10;44.00
63013;DHT22;62113;45.624;11.700;2023-10-09T08:27:53;31.40;43.20
63013;DHT22;62113;45.624;11.700;2023-10-09T08:30:20;31.60;42.80
63013;DHT22;62113;45.624;11.700;2023-10-09T08:32:51;31.70;43.40
63013;DHT22;62113;45.624;11.700;2023-10-09T08:35:39;31.60;42.90
63013;DHT22;62113;45.624;11.700;2023-10-09T08:38:15;31.70;43.70
63013;DHT22;62113;45.624;11.700;2023-10-09T08:40:42;31.80;42.50
63013;DHT22;62113;45.624;11.700;2023-10-09T08:45:46;30.90;43.90
63013;DHT22;62113;45.624;11.700;2023-10-09T08:48:12;30.70;44.80
63013;DHT22;62113;45.624;11.700;2023-10-09T08:50:42;30.30;46.10
63013;DHT22;62113;45.624;11.700;2023-10-09T08:53:11;29.90;46.20
63013;DHT22;62113;45.624;11.700;2023-10-09T08:55:37;29.90;46.80
63013;DHT22;62113;45.624;11.700;2023-10-09T08:58:04;30.10;46.60
63013;DHT22;62113;45.624;11.700;2023-10-09T09:00:37;29.90;47.00
63013;DHT22;62113;45.624;11.700;2023-10-09T09:03:03;30.90;45.90
63013;DHT22;62113;45.624;11.700;2023-10-09T09:05:30;31.90;43.80
63013;DHT22;62113;45.624;11.700;2023-10-09T09:07:55;32.30;42.90
63013;DHT22;62113;45.624;11.700;2023-10-09T09:10:28;33.10;41.70
63013;DHT22;62113;45.624;11.700;2023-10-09T09:13:01;33.60;40.10
63013;DHT22;62113;45.624;11.700;2023-10-09T09:15:29;34.10;38.70
63013;DHT22;62113;45.624;11.700;2023-10-09T09:18:04;34.30;39.10
63013;DHT22;62113;45.624;11.700;2023-10-09T09:20:31;34.50;38.60
63013;DHT22;62113;45.624;11.700;2023-10-09T09:23:00;34.70;38.90
63013;DHT22;62113;45.624;11.700;2023-10-09T09:28:11;34.70;37.90
63013;DHT22;62113;45.624;11.700;2023-10-09T09:30:38;33.40;40.40
63013;DHT22;62113;45.624;11.700;2023-10-09T09:35:55;32.90;40.70
63013;DHT22;62113;45.624;11.700;2023-10-09T09:38:22;32.50;41.70
63013;DHT22;62113;45.624;11.700;2023-10-09T09:40:49;32.20;42.10
63013;DHT22;62113;45.624;11.700;2023-10-09T09:43:19;31.50;43.30
63013;DHT22;62113;45.624;11.700;2023-10-09T09:45:48;31.30;44.30
63013;DHT22;62113;45.624;11.700;2023-10-09T09:48:18;30.90;44.50
63013;DHT22;62113;45.624;11.700;2023-10-09T09:50:44;30.80;44.70
63013;DHT22;62113;45.624;11.700;2023-10-09T09:53:13;30.70;45.00
63013;DHT22;62113;45.624;11.700;2023-10-09T09:55:44;30.70;43.50
63013;DHT22;62113;45.624;11.700;2023-10-09T09:58:17;30.50;43.20
63013;DHT22;62113;45.624;11.700;2023-10-09T10:00:46;30.40;44.40
63013;DHT22;62113;45.624;11.700;2023-10-09T10:03:19;30.50;45.30
63013;DHT22;62113;45.624;11.700;2023-10-09T10:05:46;30.40;45.10
63013;DHT22;62113;45.624;11.700;2023-10-09T10:08:17;30.40;45.00
63013;DHT22;62113;45.624;11.700;2023-10-09T10:10:46;30.30;45.40
63013;DHT22;62113;45.624;11.700;2023-10-09T10:14:06;30.20;44.60
63013;DHT22;62113;45.624;11.700;2023-10-09T10:16:13;30.10;44.70
63013;DHT22;62113;45.624;11.700;2023-10-09T10:21:28;29.70;47.00
63013;DHT22;62113;45.624;11.700;2023-10-09T10:29:35;29.70;46.80
63013;DHT22;62113;45.624;11.700;2023-10-09T10:32:03;29.70;47.10
63013;DHT22;62113;45.624;11.700;2023-10-09T10:37:36;29.50;47.00
63013;DHT22;62113;45.624;11.700;2023-10-09T10:40:26;29.50;47.00
63013;DHT22;62113;45.624;11.700;2023-10-09T10:43:18;29.50;46.80
63013;DHT22;62113;45.624;11.700;2023-10-09T10:46:13;29.40;47.10
63013;DHT22;62113;45.624;11.700;2023-10-09T10:49:10;29.30;47.30
63013;DHT22;62113;45.624;11.700;2023-10-09T10:51:37;29.20;47.50
63013;DHT22;62113;45.624;11.700;2023-10-09T10:54:04;29.20;47.40
63013;DHT22;62113;45.624;11.700;2023-10-09T10:56:48;28.90;48.20
63013;DHT22;62113;45.624;11.700;2023-10-09T10:59:14;29.00;48.10
63013;DHT22;62113;45.624;11.700;2023-10-09T11:01:39;29.30;48.10
63013;DHT22;62113;45.624;11.700;2023-10-09T11:04:24;28.70;49.40
63013;DHT22;62113;45.624;11.700;2023-10-09T11:06:53;28.40;50.30
63013;DHT22;62113;45.624;11.700;2023-10-09T11:09:25;28.40;49.90
63013;DHT22;62113;45.624;11.700;2023-10-09T11:12:09;28.50;49.30
63013;DHT22;62113;45.624;11.700;2023-10-09T11:14:47;28.50;49.00
63013;DHT22;62113;45.624;11.700;2023-10-09T11:17:37;28.50;49.60
63013;DHT22;62113;45.624;11.700;2023-10-09T11:20:04;28.40;49.70
63013;DHT22;62113;45.624;11.700;2023-10-09T11:22:49;28.50;50.20
63013;DHT22;62113;45.624;11.700;2023-10-09T11:25:33;28.40;49.70
63013;DHT22;62113;45.624;11.700;2023-10-09T11:27:59;28.40;50.20
63013;DHT22;62113;45.624;11.700;2023-10-09T11:30:40;28.40;49.40
63013;DHT22;62113;45.624;11.700;2023-10-09T11:33:06;28.40;49.50
63013;DHT22;62113;45.624;11.700;2023-10-09T11:35:39;28.40;49.50
63013;DHT22;62113;45.624;11.700;2023-10-09T11:38:08;28.40;50.90
63013;DHT22;62113;45.624;11.700;2023-10-09T11:40:46;28.10;50.50
63013;DHT22;62113;45.624;11.700;2023-10-09T11:43:18;28.20;50.60
63013;DHT22;62113;45.624;11.700;2023-10-09T11:45:49;28.20;50.40
63013;DHT22;62113;45.624;11.700;2023-10-09T11:48:21;28.20;50.50
63013;DHT22;62113;45.624;11.700;2023-10-09T11:50:58;28.20;50.20
63013;DHT22;62113;45.624;11.700;2023-10-09T11:53:45;28.20;50.50
63013;DHT22;62113;45.624;11.700;2023-10-09T11:56:22;28.30;49.90
63013;DHT22;62113;45.624;11.700;2023-10-09T11:58:52;28.10;49.80
63013;DHT22;62113;45.624;11.700;2023-10-09T12:01:18;28.20;49.80
63013;DHT22;62113;45.624;11.700;2023-10-09T12:03:47;28.20;49.00
63013;DHT22;62113;45.624;11.700;2023-10-09T12:06:16;28.20;50.10
63013;DHT22;62113;45.624;11.700;2023-10-09T12:08:47;28.20;48.70
63013;DHT22;62113;45.624;11.700;2023-10-09T12:11:12;28.10;48.70
63013;DHT22;62113;45.624;11.700;2023-10-09T12:13:39;28.20;48.80
63013;DHT22;62113;45.624;11.700;2023-10-09T12:16:07;28.20;48.90
63013;DHT22;62113;45.624;11.700;2023-10-09T12:18:36;28.20;49.00
63013;DHT22;62113;45.624;11.700;2023-10-09T12:21:08;28.20;49.70
63013;DHT22;62113;45.624;11.700;2023-10-09T12:23:40;28.20;48.30
63013;DHT22;62113;45.624;11.700;2023-10-09T12:26:08;28.20;48.60
63013;DHT22;62113;45.624;11.700;2023-10-09T12:28:43;28.20;47.10
63013;DHT22;62113;45.624;11.700;2023-10-09T12:31:14;28.40;48.00
63013;DHT22;62113;45.624;11.700;2023-10-09T12:33:46;28.30;47.60
63013;DHT22;62113;45.624;11.700;2023-10-09T12:36:16;28.30;48.10
63013;DHT22;62113;45.624;11.700;2023-10-09T12:38:48;28.30;47.70
63013;DHT22;62113;45.624;11.700;2023-10-09T12:41:19;28.30;48.00
63013;DHT22;62113;45.624;11.700;2023-10-09T12:43:53;28.30;48.20
63013;DHT22;62113;45.624;11.700;2023-10-09T12:46:19;28.20;48.40
63013;DHT22;62113;45.624;11.700;2023-10-09T12:48:48;28.10;48.60
63013;DHT22;62113;45.624;11.700;2023-10-09T12:51:14;28.10;48.70
63013;DHT22;62113;45.624;11.700;2023-10-09T12:53:42;28.10;48.60
63013;DHT22;62113;45.624;11.700;2023-10-09T12:56:08;28.20;48.10
63013;DHT22;62113;45.624;11.700;2023-10-09T12:58:34;28.20;47.60
63013;DHT22;62113;45.624;11.700;2023-10-09T13:01:02;28.30;47.00
63013;DHT22;62113;45.624;11.700;2023-10-09T13:03:35;28.30;47.50
63013;DHT22;62113;45.624;11.700;2023-10-09T13:06:03;28.40;47.50
63013;DHT22;62113;45.624;11.700;2023-10-09T13:08:33;28.50;46.20
63013;DHT22;62113;45.624;11.700;2023-10-09T13:11:05;28.50;46.90
63013;DHT22;62113;45.624;11.700;2023-10-09T13:13:38;28.50;46.20
63013;DHT22;62113;45.624;11.700;2023-10-09T13:16:13;28.50;45.80
63013;DHT22;62113;45.624;11.700;2023-10-09T13:18:46;28.40;46.10
63013;DHT22;62113;45.624;11.700;2023-10-09T13:21:15;28.50;46.60
63013;DHT22;62113;45.624;11.700;2023-10-09T13:23:41;28.50;46.40
63013;DHT22;62113;45.624;11.700;2023-10-09T13:26:12;28.60;46.50
63013;DHT22;62113;45.624;11.700;2023-10-09T13:28:45;28.50;46.60
63013;DHT22;62113;45.624;11.700;2023-10-09T13:31:11;28.50;46.70
63013;DHT22;62113;45.624;11.700;2023-10-09T13:33:42;28.50;46.70
63013;DHT22;62113;45.624;11.700;2023-10-09T13:36:11;28.40;46.60
63013;DHT22;62113;45.624;11.700;2023-10-09T13:38:55;28.40;46.30
63013;DHT22;62113;45.624;11.700;2023-10-09T13:41:21;28.50;46.60
63013;DHT22;62113;45.624;11.700;2023-10-09T13:43:47;28.50;46.80
63013;DHT22;62113;45.624;11.700;2023-10-09T13:46:12;28.40;46.60
63013;DHT22;62113;45.624;11.700;2023-10-09T13:48:41;28.40;46.70
63013;DHT22;62113;45.624;11.700;2023-10-09T13:51:09;28.50;47.50
63013;DHT22;62113;45.624;11.700;2023-10-09T13:53:42;28.50;46.80
63013;DHT22;62113;45.624;11.700;2023-10-09T13:56:11;28.50;46.10
63013;DHT22;62113;45.624;11.700;2023-10-09T13:58:40;28.50;47.10
63013;DHT22;62113;45.624;11.700;2023-10-09T14:01:08;28.50;46.20
63013;DHT22;62113;45.624;11.700;2023-10-09T14:03:34;28.50;46.50
63013;DHT22;62113;45.624;11.700;2023-10-09T14:05:59;28.50;46.10
63013;DHT22;62113;45.624;11.700;2023-10-09T14:08:35;28.40;46.10
63013;DHT22;62113;45.624;11.700;2023-10-09T14:11:07;28.50;46.70
63013;DHT22;62113;45.624;11.700;2023-10-09T14:13:41;28.50;46.60
63013;DHT22;62113;45.624;11.700;2023-10-09T14:16:06;28.50;46.50
63013;DHT22;62113;45.624;11.700;2023-10-09T14:18:33;28.50;46.60
63013;DHT22;62113;45.624;11.700;2023-10-09T14:21:01;28.50;46.80
63013;DHT22;62113;45.624;11.700;2023-10-09T14:23:30;28.50;46.70
63013;DHT22;62113;45.624;11.700;2023-10-09T14:25:59;28.50;46.40
63013;DHT22;62113;45.624;11.700;2023-10-09T14:28:27;28.40;46.30
63013;DHT22;62113;45.624;11.700;2023-10-09T14:30:54;28.40;46.60
63013;DHT22;62113;45.624;11.700;2023-10-09T14:33:24;28.40;47.00
63013;DHT22;62113;45.624;11.700;2023-10-09T14:35:50;28.50;46.70
63013;DHT22;62113;45.624;11.700;2023-10-09T14:38:18;28.50;46.60
63013;DHT22;62113;45.624;11.700;2023-10-09T14:40:47;28.50;46.70
63013;DHT22;62113;45.624;11.700;2023-10-09T14:43:13;28.50;46.70
63013;DHT22;62113;45.624;11.700;2023-10-09T14:45:48;28.40;46.60
63013;DHT22;62113;45.624;11.700;2023-10-09T14:48:19;28.40;47.10
63013;DHT22;62113;45.624;11.700;2023-10-09T14:50:48;28.40;47.30
63013;DHT22;62113;45.624;11.700;2023-10-09T14:53:14;28.40;47.20
63013;DHT22;62113;45.624;11.700;2023-10-09T14:55:41;28.40;48.00
63013;DHT22;62113;45.624;11.700;2023-10-09T14:58:10;28.40;48.10
63013;DHT22;62113;45.624;11.700;2023-10-09T15:00:36;28.30;48.10
63013;DHT22;62113;45.624;11.700;2023-10-09T15:03:02;28.30;48.40
63013;DHT22;62113;45.624;11.700;2023-10-09T15:05:28;28.30;47.90
63013;DHT22;62113;45.624;11.700;2023-10-09T15:07:57;28.20;47.80
63013;DHT22;62113;45.624;11.700;2023-10-09T15:10:22;28.20;48.00
63013;DHT22;62113;45.624;11.700;2023-10-09T15:12:49;28.20;48.10
63013;DHT22;62113;45.624;11.700;2023-10-09T15:15:15;28.20;48.10
63013;DHT22;62113;45.624;11.700;2023-10-09T15:17:41;28.20;48.10
63013;DHT22;62113;45.624;11.700;2023-10-09T15:20:11;28.20;48.50
63013;DHT22;62113;45.624;11.700;2023-10-09T15:22:41;28.20;48.50
63013;DHT22;62113;45.624;11.700;2023-10-09T15:25:07;28.20;48.40
63013;DHT22;62113;45.624;11.700;2023-10-09T15:27:33;28.20;48.90
63013;DHT22;62113;45.624;11.700;2023-10-09T15:29:58;28.20;48.30
63013;DHT22;62113;45.624;11.700;2023-10-09T15:32:24;28.20;48.40
63013;DHT22;62113;45.624;11.700;2023-10-09T15:34:54;28.20;48.50
63013;DHT22;62113;45.624;11.700;2023-10-09T15:37:20;28.20;48.60
63013;DHT22;62113;45.624;11.700;2023-10-09T15:39:45;28.20;48.60
63013;DHT22;62113;45.624;11.700;2023-10-09T15:42:12;28.10;48.60
63013;DHT22;62113;45.624;11.700;2023-10-09T15:44:38;28.20;48.60
63013;DHT22;62113;45.624;11.700;2023-10-09T15:47:04;28.20;48.70
63013;DHT22;62113;45.624;11.700;2023-10-09T15:49:33;28.20;48.80
63013;DHT22;62113;45.624;11.700;2023-10-09T15:51:59;28.20;48.70
63013;DHT22;62113;45.624;11.700;2023-10-09T15:54:26;28.10;48.70
63013;DHT22;62113;45.624;11.700;2023-10-09T15:56:52;28.10;48.30
63013;DHT22;62113;45.624;11.700;2023-10-09T15:59:20;28.10;48.40
63013;DHT22;62113;45.624;11.700;2023-10-09T16:01:45;28.10;48.40
63013;DHT22;62113;45.624;11.700;2023-10-09T16:04:11;28.10;48.50
63013;DHT22;62113;45.624;11.700;2023-10-09T16:06:38;28.10;48.70
63013;DHT22;62113;45.624;11.700;2023-10-09T16:09:05;28.00;48.70
63013;DHT22;62113;45.624;11.700;2023-10-09T16:11:31;28.00;49.00
63013;DHT22;62113;45.624;11.700;2023-10-09T16:13:59;28.00;49.10
63013;DHT22;62113;45.624;11.700;2023-10-09T16:16:28;28.00;49.40
63013;DHT22;62113;45.624;11.700;2023-10-09T16:18:54;27.90;49.30
63013;DHT22;62113;45.624;11.700;2023-10-09T16:21:21;27.80;49.50